TimeEDT,TemperatureF,Dew PointF,Humidity,Sea Level PressureIn,VisibilityMPH,Wind Direction,Wind SpeedMPH,Gust SpeedMPH,PrecipitationIn,Events,Conditions,WindDirDegrees,DateUTC
12:08 AM,66.2,60.8,83,30.05,10.0,East,4.6,-,N/A,,Overcast,90,2013-08-30 04:08:00
12:53 AM,66.9,61.0,81,30.05,10.0,Calm,Calm,-,N/A,,Overcast,0,2013-08-30 04:53:00
1:40 AM,66.2,60.8,83,30.05,10.0,ESE,3.5,-,N/A,,Overcast,120,2013-08-30 05:40:00
1:53 AM,66.0,60.1,81,30.04,10.0,Calm,Calm,-,N/A,,Overcast,0,2013-08-30 05:53:00
2:02 AM,66.2,60.8,83,30.04,10.0,Calm,Calm,-,N/A,,Overcast,0,2013-08-30 06:02:00
2:53 AM,66.0,60.1,81,30.02,9.0,Calm,Calm,-,N/A,,Overcast,0,2013-08-30 06:53:00
3:03 AM,66.2,60.8,83,30.03,9.0,South,3.5,-,N/A,,Overcast,190,2013-08-30 07:03:00
3:53 AM,66.0,61.0,84,30.01,9.0,Calm,Calm,-,N/A,,Overcast,0,2013-08-30 07:53:00
4:25 AM,66.2,60.8,83,30.01,9.0,Calm,Calm,-,N/A,,Overcast,0,2013-08-30 08:25:00
4:53 AM,66.0,61.0,84,30.00,10.0,Calm,Calm,-,N/A,,Overcast,0,2013-08-30 08:53:00
5:35 AM,64.4,62.6,94,30.02,4.0,WSW,3.5,-,N/A,,Overcast,250,2013-08-30 09:35:00
5:53 AM,64.9,62.1,90,30.01,3.0,SW,3.5,-,N/A,,Overcast,230,2013-08-30 09:53:00
6:53 AM,66.0,63.0,90,30.02,3.0,SW,4.6,-,N/A,,Overcast,220,2013-08-30 10:53:00
7:53 AM,66.9,63.0,87,30.01,3.0,SW,5.8,-,N/A,,Overcast,220,2013-08-30 11:53:00
8:53 AM,69.1,64.0,84,30.01,6.0,SSW,11.5,-,N/A,,Haze,210,2013-08-30 12:53:00
9:24 AM,71.6,64.4,78,30.01,7.0,SW,9.2,-,N/A,,Overcast,220,2013-08-30 13:24:00
9:53 AM,71.1,64.0,78,30.01,8.0,West,9.2,-,N/A,,Overcast,260,2013-08-30 13:53:00
10:53 AM,73.0,64.9,76,29.99,9.0,WSW,9.2,-,N/A,,Mostly Cloudy,240,2013-08-30 14:53:00
11:53 AM,73.9,64.9,73,29.97,9.0,SW,5.8,-,N/A,,Mostly Cloudy,230,2013-08-30 15:53:00
12:09 PM,75.2,64.4,69,29.98,10.0,West,5.8,-,N/A,,Mostly Cloudy,260,2013-08-30 16:09:00
12:53 PM,78.1,64.0,62,29.95,10.0,WSW,6.9,-,N/A,,Mostly Cloudy,240,2013-08-30 16:53:00
1:53 PM,79.0,64.0,60,29.93,10.0,Variable,3.5,-,N/A,,Partly Cloudy,0,2013-08-30 17:53:00
2:53 PM,80.1,63.0,56,29.91,10.0,SSW,6.9,-,N/A,,Scattered Clouds,210,2013-08-30 18:53:00
3:53 PM,80.1,63.0,56,29.90,10.0,WSW,5.8,-,N/A,,Partly Cloudy,240,2013-08-30 19:53:00
4:53 PM,81.0,64.0,56,29.89,10.0,WSW,6.9,-,N/A,,Clear,250,2013-08-30 20:53:00
5:53 PM,80.1,64.0,58,29.88,10.0,SW,6.9,-,N/A,,Clear,230,2013-08-30 21:53:00
6:53 PM,77.0,64.9,66,29.87,9.0,South,3.5,-,N/A,,Clear,190,2013-08-30 22:53:00
7:53 PM,73.0,66.0,79,29.87,9.0,Calm,Calm,-,N/A,,Clear,0,2013-08-30 23:53:00
8:53 PM,71.1,66.0,84,29.88,8.0,Calm,Calm,-,N/A,,Clear,0,2013-08-31 00:53:00
9:53 PM,69.1,64.9,87,29.89,8.0,Calm,Calm,-,N/A,,Clear,0,2013-08-31 01:53:00
10:53 PM,73.9,66.0,76,29.88,7.0,WSW,8.1,-,N/A,,Clear,240,2013-08-31 02:53:00
11:53 PM,75.0,66.9,76,29.87,6.0,SW,10.4,-,N/A,,Haze,220,2013-08-31 03:53:00